Terminal Aerodrome Forecast
Issued by NWS

Home | Current Version | Previous Version | Text Only | Print | Product List | Glossary On
Versions: 1 2 3 4 5 6 7 8 9 10 11 12 13
000
FTAK31 PAJN 210500
TAFAPG
TAF
PAPG 210520Z 2106/2206 33003KT 6SM -SHRA BR SCT015 BKN025 OVC035
      TEMPO 2106/2109 VRB03KT 4SM -RA BR BKN008 OVC015
     FM210900 23005KT P6SM VCSH SCT025 BKN050 BKN080
     FM211200 26004KT P6SM SCT050 BKN080
     FM211800 06005KT P6SM VCSH BKN050 BKN080
      AMD LTD TO CLD VIS AND WIND 2106/2115=

USA.gov is the U.S. government's official web portal to all federal, state and local government web resources and services.